Terminal Aerodrome Forecast
Issued by NWS Wilmington, OH

Current Version | Previous Version | Graphics & Text | Print | Product List | Glossary On
Versions: 1 2 3 4 5 6 7 8 9 10 11 12 13 14
000
FTUS41 KILN 242331
TAFDAY
TAF
KDAY 242331Z 2500/2524 21010G18KT P6SM FEW050 BKN250
     FM250300 20009KT P6SM SCT050 BKN250
     FM251500 18010G20KT P6SM SCT060 BKN250=

USA.gov is the U.S. government's official web portal to all federal, state and local government web resources and services.